createdAt,value
2023-05-16T00:03:08.214Z,99903.31
2023-05-16T00:08:14.719Z,99900.78
2023-05-16T00:13:25.948Z,99899.88
2023-05-16T00:18:32.453Z,99901.69
2023-05-16T00:23:39.071Z,99899.13
2023-05-16T00:28:47.321Z,99901.69
2023-05-16T00:33:53.784Z,99892.13
2023-05-16T00:39:03.457Z,99894.88
2023-05-16T00:44:11.936Z,99893.06
2023-05-16T00:49:18.977Z,99903.66
2023-05-16T00:54:29.633Z,99898.50
2023-05-16T00:59:37.972Z,99907.19
2023-05-16T01:04:46.294Z,99901.16
2023-05-16T01:09:53.321Z,99905.41
2023-05-16T01:15:10.229Z,99906.38
2023-05-16T01:20:30.534Z,99913.47
2023-05-16T01:25:58.743Z,99920.38
2023-05-16T01:31:07.485Z,99919.53
2023-05-16T01:36:28.124Z,99924.03
2023-05-16T01:41:45.270Z,99938.69
2023-05-16T01:46:59.962Z,99935.16
2023-05-16T01:52:15.264Z,99939.53
2023-05-16T01:57:23.813Z,99942.38
2023-05-16T02:02:32.769Z,99940.88
2023-05-16T02:07:43.278Z,99943.66
2023-05-16T02:12:49.654Z,99941.34
2023-05-16T02:17:58.987Z,99940.75
2023-05-16T02:23:05.397Z,99947.94
2023-05-16T02:28:11.878Z,99946.47
2023-05-16T02:33:19.574Z,99952.00
2023-05-16T02:38:26.037Z,99942.81
2023-05-16T02:43:32.459Z,99944.97
2023-05-16T02:48:40.408Z,99945.25
2023-05-16T02:53:47.234Z,99951.56
2023-05-16T02:58:55.150Z,99955.28
2023-05-16T03:04:03.058Z,99944.78
2023-05-16T03:09:09.954Z,99953.59
2023-05-16T03:14:16.884Z,99958.66
2023-05-16T03:19:27.443Z,99961.03
2023-05-16T03:24:35.530Z,99954.91
2023-05-16T03:29:42.493Z,99967.03
2023-05-16T03:34:50.440Z,99956.69
2023-05-16T03:39:57.175Z,99966.66
2023-05-16T03:45:04.014Z,99963.81
2023-05-16T03:50:12.958Z,99975.69
2023-05-16T03:55:19.645Z,99972.03
2023-05-16T04:00:27.397Z,99973.59
2023-05-16T04:05:35.288Z,99983.00
2023-05-16T04:10:42.001Z,99975.84
2023-05-16T04:15:48.570Z,99982.72
2023-05-16T04:20:56.693Z,99998.00
2023-05-16T04:26:04.973Z,100007.31
2023-05-16T04:31:11.621Z,100021.16
2023-05-16T04:36:19.500Z,100018.38
2023-05-16T04:41:25.865Z,100021.66
2023-05-16T04:46:32.547Z,100015.28
2023-05-16T04:51:40.869Z,100037.13
2023-05-16T04:56:47.700Z,100038.69
2023-05-16T05:01:55.005Z,100047.34
2023-05-16T05:07:02.807Z,100057.84
2023-05-16T05:12:12.019Z,100069.03
2023-05-16T05:17:19.110Z,100072.38
2023-05-16T05:22:27.362Z,100077.59
2023-05-16T05:27:33.887Z,100075.91
2023-05-16T05:32:40.634Z,100075.00
2023-05-16T05:37:49.374Z,100077.56
2023-05-16T05:42:56.528Z,100073.75
2023-05-16T05:48:03.728Z,100089.13
2023-05-16T05:53:12.260Z,100105.66
2023-05-16T05:58:19.185Z,100101.34
2023-05-16T06:03:26.058Z,100117.13
2023-05-16T06:08:34.552Z,100132.75
2023-05-16T06:13:40.970Z,100130.97
2023-05-16T06:18:49.194Z,100124.97
2023-05-16T06:23:57.464Z,100141.22
2023-05-16T06:29:06.262Z,100149.78
2023-05-16T06:34:12.955Z,100167.03
2023-05-16T06:39:21.199Z,100170.16
2023-05-16T06:44:28.079Z,100172.63
2023-05-16T06:49:35.415Z,100187.91
2023-05-16T06:54:43.681Z,100180.97
2023-05-16T06:59:50.291Z,100196.81
2023-05-16T07:04:56.937Z,100213.91
2023-05-16T07:10:05.018Z,100223.53
2023-05-16T07:15:13.940Z,100244.72
2023-05-16T07:20:20.734Z,100252.03
2023-05-16T07:25:29.336Z,100260.63
2023-05-16T07:30:36.428Z,100272.63
2023-05-16T07:35:43.366Z,100274.75
2023-05-16T07:40:51.381Z,100279.56
2023-05-16T07:45:58.153Z,100272.81
2023-05-16T07:51:05.011Z,100281.84
2023-05-16T07:56:13.308Z,100286.41
2023-05-16T08:01:20.659Z,100305.28
2023-05-16T08:06:30.138Z,100312.81
2023-05-16T08:11:40.402Z,100315.44
2023-05-16T08:16:47.274Z,100314.38
2023-05-16T08:21:54.754Z,100321.94
2023-05-16T08:27:02.794Z,100328.63
2023-05-16T08:32:11.882Z,100318.13
2023-05-16T08:37:18.692Z,100318.00
2023-05-16T08:42:27.870Z,100309.50
2023-05-16T08:47:36.990Z,100307.75
2023-05-16T08:52:47.152Z,100316.66
2023-05-16T08:57:58.207Z,100313.47
2023-05-16T09:03:05.577Z,100329.44
2023-05-16T09:08:12.312Z,100340.78
2023-05-16T09:13:20.274Z,100341.38
2023-05-16T09:18:28.826Z,100337.34
2023-05-16T09:23:37.369Z,100340.09
2023-05-16T09:28:45.815Z,100341.25
2023-05-16T09:33:52.574Z,100345.63
2023-05-16T09:38:59.547Z,100355.72
2023-05-16T09:44:09.096Z,100367.28
2023-05-16T09:49:17.313Z,100369.69
2023-05-16T09:54:34.436Z,100381.69
2023-05-16T09:59:43.733Z,100383.22
2023-05-16T10:04:50.552Z,100412.72
2023-05-16T10:09:58.818Z,100427.31
2023-05-16T10:15:09.035Z,100428.91
2023-05-16T10:20:17.001Z,100433.81
2023-05-16T10:25:31.262Z,100432.03
2023-05-16T10:30:42.346Z,100441.69
2023-05-16T10:35:49.852Z,100455.69
2023-05-16T10:40:57.626Z,100455.47
2023-05-16T10:46:10.728Z,100463.78
2023-05-16T10:51:39.418Z,100451.13
2023-05-16T10:56:46.389Z,100455.72
2023-05-16T11:01:58.091Z,100459.38
2023-05-16T11:07:09.127Z,100455.59
2023-05-16T11:12:16.602Z,100460.72
2023-05-16T11:17:28.063Z,100481.47
2023-05-16T11:22:41.630Z,100483.88
2023-05-16T11:27:50.039Z,100491.50
2023-05-16T11:32:58.739Z,100502.22
2023-05-16T11:38:05.680Z,100507.63
2023-05-16T11:43:14.014Z,100515.16
2023-05-16T11:48:35.370Z,100510.13
2023-05-16T11:53:43.451Z,100516.56
2023-05-16T11:58:50.992Z,100528.03
2023-05-16T12:04:00.192Z,100518.13
2023-05-16T12:09:11.018Z,100515.94
2023-05-16T12:14:19.443Z,100516.53
2023-05-16T12:19:27.841Z,100516.78
2023-05-16T12:24:35.034Z,100513.75
2023-05-16T12:29:42.270Z,100514.03
2023-05-16T12:34:56.406Z,100520.19
2023-05-16T12:40:04.699Z,100527.75
2023-05-16T12:45:18.675Z,100530.66
2023-05-16T12:50:29.759Z,100531.88
2023-05-16T12:55:39.807Z,100534.81
2023-05-16T13:00:46.470Z,100531.72
2023-05-16T13:05:54.780Z,100529.66
2023-05-16T13:11:01.560Z,100540.22
2023-05-16T13:16:10.918Z,100545.50
2023-05-16T13:21:19.392Z,100540.22
2023-05-16T13:26:27.149Z,100548.75
2023-05-16T13:31:33.951Z,100552.06
2023-05-16T13:36:53.995Z,100543.97
2023-05-16T13:42:03.518Z,100547.22
2023-05-16T13:47:10.359Z,100530.28
2023-05-16T13:52:18.988Z,100549.28
2023-05-16T13:57:27.871Z,100541.22
2023-05-16T14:02:34.466Z,100546.81
2023-05-16T14:07:46.674Z,100552.88
2023-05-16T14:12:53.779Z,100545.28
2023-05-16T14:18:00.538Z,100545.81
2023-05-16T14:23:09.086Z,100542.91
2023-05-16T14:28:20.830Z,100551.94
2023-05-16T14:33:27.801Z,100541.88
2023-05-16T14:38:36.178Z,100544.84
2023-05-16T14:43:42.744Z,100538.56
2023-05-16T14:48:49.342Z,100544.00
2023-05-16T14:53:58.097Z,100543.41
2023-05-16T14:59:05.024Z,100544.94
2023-05-16T15:04:11.579Z,100547.75
2023-05-16T15:09:19.638Z,100551.84
2023-05-16T15:14:27.467Z,100553.88
2023-05-16T15:19:34.291Z,100543.94
2023-05-16T15:24:42.782Z,100542.72
2023-05-16T15:29:49.590Z,100541.72
2023-05-16T15:34:56.805Z,100541.44
2023-05-16T15:40:06.408Z,100541.38
2023-05-16T15:45:14.406Z,100537.63
2023-05-16T15:50:21.603Z,100535.41
2023-05-16T15:55:30.850Z,100546.22
2023-05-16T16:00:37.652Z,100537.28
2023-05-16T16:05:44.341Z,100539.25
2023-05-16T16:10:52.681Z,100534.13
2023-05-16T16:15:59.572Z,100532.44
2023-05-16T16:21:07.778Z,100532.34
2023-05-16T16:26:16.468Z,100535.56
2023-05-16T16:31:23.109Z,100529.50
2023-05-16T16:36:30.072Z,100535.16
2023-05-16T16:41:39.912Z,100536.25
2023-05-16T16:46:46.884Z,100532.81
2023-05-16T16:51:53.820Z,100538.34
2023-05-16T16:57:02.680Z,100544.53
2023-05-16T17:02:09.825Z,100542.09
2023-05-16T17:07:16.654Z,100545.66
2023-05-16T17:12:29.171Z,100536.19
2023-05-16T17:17:36.340Z,100538.25
2023-05-16T17:22:48.699Z,100541.97
2023-05-16T17:27:59.613Z,100553.72
2023-05-16T17:33:10.361Z,100548.84
2023-05-16T17:38:21.196Z,100554.47
2023-05-16T17:43:31.498Z,100564.53
2023-05-16T17:48:39.322Z,100567.66
2023-05-16T17:53:49.882Z,100568.03
2023-05-16T17:58:58.570Z,100568.59
2023-05-16T18:04:07.330Z,100584.00
2023-05-16T18:09:15.441Z,100594.19
2023-05-16T18:14:24.053Z,100592.94
2023-05-16T18:19:31.116Z,100587.34
2023-05-16T18:24:38.393Z,100592.28
2023-05-16T18:29:47.218Z,100591.66
2023-05-16T18:34:54.029Z,100598.28
2023-05-16T18:40:02.181Z,100597.00
2023-05-16T18:45:14.180Z,100607.94
2023-05-16T18:50:24.660Z,100616.31
2023-05-16T18:55:32.080Z,100605.22
2023-05-16T19:00:42.714Z,100610.69
2023-05-16T19:05:50.059Z,100614.63
2023-05-16T19:10:59.956Z,100607.81
2023-05-16T19:16:10.649Z,100623.94
2023-05-16T19:21:18.482Z,100615.31
2023-05-16T19:26:29.652Z,100616.44
2023-05-16T19:31:39.639Z,100614.94
2023-05-16T19:36:46.950Z,100623.03
2023-05-16T19:42:06.235Z,100629.44
2023-05-16T19:47:16.447Z,100628.91
2023-05-16T19:52:25.569Z,100634.38
2023-05-16T19:57:32.414Z,100623.22
2023-05-16T20:02:41.021Z,100626.03
2023-05-16T20:07:47.969Z,100629.97
2023-05-16T20:12:54.970Z,100620.38
2023-05-16T20:18:06.909Z,100627.38
2023-05-16T20:23:14.009Z,100619.66
2023-05-16T20:28:21.341Z,100624.19
2023-05-16T20:33:30.062Z,100621.72
2023-05-16T20:38:38.726Z,100625.47
2023-05-16T20:43:47.082Z,100622.16
2023-05-16T20:48:55.288Z,100620.56
2023-05-16T20:54:02.219Z,100629.56
2023-05-16T20:59:09.980Z,100629.56
2023-05-16T21:04:18.210Z,100641.94
2023-05-16T21:09:25.068Z,100644.69
2023-05-16T21:14:31.994Z,100647.34
2023-05-16T21:19:42.586Z,100647.44
2023-05-16T21:24:49.353Z,100643.97
2023-05-16T21:29:55.765Z,100653.66
2023-05-16T21:35:07.221Z,100659.94
2023-05-16T21:40:19.502Z,100654.78
2023-05-16T21:45:27.611Z,100659.31
2023-05-16T21:50:36.498Z,100663.06
2023-05-16T21:55:44.117Z,100657.09
2023-05-16T22:00:52.573Z,100659.47
2023-05-16T22:06:01.551Z,100656.00
2023-05-16T22:11:09.062Z,100663.03
2023-05-16T22:16:17.589Z,100657.97
2023-05-16T22:21:25.926Z,100663.25
2023-05-16T22:26:32.887Z,100669.44
2023-05-16T22:31:39.500Z,100667.72
2023-05-16T22:36:48.788Z,100667.72
2023-05-16T22:41:55.763Z,100661.66
2023-05-16T22:47:02.459Z,100665.13
2023-05-16T22:52:10.972Z,100664.19
2023-05-16T22:57:17.864Z,100661.56
2023-05-16T23:02:27.011Z,100668.56
2023-05-16T23:07:34.681Z,100665.94
2023-05-16T23:12:41.167Z,100673.94
2023-05-16T23:17:47.877Z,100668.94
2023-05-16T23:22:56.915Z,100671.75
2023-05-16T23:28:03.299Z,100672.03
2023-05-16T23:33:09.928Z,100666.81
2023-05-16T23:38:18.083Z,100675.59
2023-05-16T23:43:25.689Z,100672.50
2023-05-16T23:48:36.553Z,100663.63
2023-05-16T23:53:44.998Z,100661.91
2023-05-16T23:58:51.736Z,100657.69
